createdAt,value
2016-12-30T00:00:03.271Z,-0.22
2016-12-30T00:00:48.368Z,-0.1
2016-12-30T00:01:48.384Z,-0.08
2016-12-30T00:02:48.397Z,-0.01
2016-12-30T00:04:03.328Z,0.02
2016-12-30T00:04:48.423Z,-0.03
2016-12-30T00:05:48.441Z,-0.01
2016-12-30T00:06:48.455Z,-0.05
2016-12-30T00:07:48.470Z,-0.11
2016-12-30T00:08:48.483Z,-0.04
2016-12-30T00:10:48.511Z,-0.07
2016-12-30T00:11:48.528Z,-0.04
2016-12-30T00:12:48.541Z,-0.07
2016-12-30T00:13:48.559Z,-0.26
2016-12-30T00:14:48.570Z,-0.25
2016-12-30T00:15:48.587Z,-0.21
2016-12-30T00:16:48.601Z,-0.16
2016-12-30T00:17:48.613Z,-0.04
2016-12-30T00:18:48.625Z,-0.21
2016-12-30T00:20:03.558Z,-0.23
2016-12-30T00:20:48.657Z,-0.21
2016-12-30T00:21:48.669Z,-0.36
2016-12-30T00:23:48.898Z,-0.37
2016-12-30T00:24:48.711Z,-0.29
2016-12-30T00:25:48.728Z,-0.1
2016-12-30T00:26:48.745Z,-0.16
2016-12-30T00:27:48.756Z,-0.14
2016-12-30T00:29:03.688Z,-0.28
2016-12-30T00:29:48.783Z,-0.21
2016-12-30T00:30:48.802Z,-0.42
2016-12-30T00:31:48.812Z,-0.43
2016-12-30T00:32:48.827Z,-0.46
2016-12-30T00:33:48.841Z,-0.42
2016-12-30T00:35:03.773Z,-0.36
2016-12-30T00:35:48.871Z,-0.37
2016-12-30T00:36:48.882Z,-0.43
2016-12-30T00:37:48.899Z,-0.49
2016-12-30T00:38:48.912Z,-0.49
2016-12-30T00:39:48.929Z,-0.55
2016-12-30T00:40:48.941Z,-0.54
2016-12-30T00:41:48.958Z,-0.57
2016-12-30T00:42:48.968Z,-0.54
2016-12-30T00:43:48.986Z,-0.62
2016-12-30T00:45:03.916Z,-0.52
2016-12-30T00:46:03.928Z,-0.58
2016-12-30T00:46:49.026Z,-0.54
2016-12-30T00:47:49.038Z,-0.37
2016-12-30T00:48:49.053Z,-0.25
2016-12-30T00:49:49.073Z,-0.33
2016-12-30T00:50:49.081Z,-0.34
2016-12-30T00:51:49.097Z,-0.29
2016-12-30T00:52:49.109Z,-0.34
2016-12-30T00:53:49.125Z,-0.36
2016-12-30T00:54:49.138Z,-0.36
2016-12-30T00:55:49.153Z,-0.43
2016-12-30T00:57:49.180Z,-0.46
2016-12-30T00:58:49.195Z,-0.4
2016-12-30T00:59:49.209Z,-0.44
2016-12-30T01:00:49.222Z,-0.36
2016-12-30T01:01:49.237Z,-0.37
2016-12-30T01:02:49.253Z,-0.31
2016-12-30T01:03:49.267Z,-0.39
2016-12-30T01:04:49.279Z,-0.44
2016-12-30T01:05:49.296Z,-0.43
2016-12-30T01:07:04.225Z,-0.52
2016-12-30T01:07:49.328Z,-0.49
2016-12-30T01:08:49.335Z,-0.46
2016-12-30T01:09:49.348Z,-0.36
2016-12-30T01:10:49.366Z,-0.43
2016-12-30T01:12:49.391Z,-0.43
2016-12-30T01:13:49.409Z,-0.4
2016-12-30T01:15:04.724Z,-0.55
2016-12-30T01:15:49.433Z,-0.58
2016-12-30T01:16:49.447Z,-0.64
2016-12-30T01:18:04.380Z,-0.7
2016-12-30T01:18:49.481Z,-0.67
2016-12-30T01:19:49.490Z,-0.82
2016-12-30T01:20:49.503Z,-0.78
2016-12-30T01:21:49.520Z,-0.82
2016-12-30T01:23:04.452Z,-0.82
2016-12-30T01:23:49.546Z,-0.76
2016-12-30T01:24:49.562Z,-0.83
2016-12-30T01:25:49.577Z,-0.79
2016-12-30T01:26:49.589Z,-0.78
2016-12-30T01:27:49.603Z,-0.61
2016-12-30T01:28:49.617Z,-0.65
2016-12-30T01:30:49.646Z,-0.64
2016-12-30T01:31:49.659Z,-0.67
2016-12-30T01:32:49.671Z,-0.72
2016-12-30T01:33:49.710Z,-0.65
2016-12-30T01:34:49.704Z,-0.72
2016-12-30T01:35:49.717Z,-0.7
2016-12-30T01:36:49.729Z,-0.73
2016-12-30T01:37:49.742Z,-0.64
2016-12-30T01:39:04.673Z,-0.67
2016-12-30T01:39:49.774Z,-0.67
2016-12-30T01:40:49.791Z,-0.55
2016-12-30T01:42:49.812Z,-0.61
2016-12-30T01:43:49.827Z,-0.62
2016-12-30T01:46:49.871Z,-0.58
2016-12-30T01:48:04.802Z,-0.58
2016-12-30T01:48:49.897Z,-0.55
2016-12-30T01:49:49.908Z,-0.51
2016-12-30T01:50:49.927Z,-0.55
2016-12-30T01:51:49.939Z,-0.55
2016-12-30T01:52:49.953Z,-0.61
2016-12-30T01:53:50.075Z,-0.61
2016-12-30T01:55:49.993Z,-0.57
2016-12-30T01:56:50.006Z,-0.67
2016-12-30T01:57:50.019Z,-0.72
2016-12-30T01:58:50.035Z,-0.61
2016-12-30T01:59:50.049Z,-0.65
2016-12-30T02:00:50.062Z,-0.55
2016-12-30T02:01:50.077Z,-0.49
2016-12-30T02:04:05.024Z,-0.78
2016-12-30T02:04:50.118Z,-0.58
2016-12-30T02:06:05.049Z,-0.6
2016-12-30T02:06:50.146Z,-0.6
2016-12-30T02:07:50.162Z,-0.7
2016-12-30T02:08:50.174Z,-0.85
2016-12-30T02:10:05.108Z,-0.92
2016-12-30T02:10:50.205Z,-1.01
2016-12-30T02:11:50.220Z,-1.02
2016-12-30T02:12:50.235Z,-1.09
2016-12-30T02:13:50.248Z,-1.05
2016-12-30T02:14:50.258Z,-1.05
2016-12-30T02:15:50.275Z,-0.98
2016-12-30T02:16:50.287Z,-1.12
2016-12-30T02:17:50.303Z,-0.95
2016-12-30T02:18:50.335Z,-1.02
2016-12-30T02:20:05.245Z,-0.89
2016-12-30T02:20:50.344Z,-0.95
2016-12-30T02:21:50.354Z,-0.83
2016-12-30T02:22:50.371Z,-0.62
2016-12-30T02:23:50.382Z,-0.72
2016-12-30T02:24:50.398Z,-0.8
2016-12-30T02:25:50.411Z,-0.98
2016-12-30T02:26:50.424Z,-0.91
2016-12-30T02:27:50.440Z,-0.98
2016-12-30T02:28:50.451Z,-1.04
2016-12-30T02:29:50.464Z,-0.94
2016-12-30T02:30:50.686Z,-1.05
2016-12-30T02:31:50.492Z,-1.1
2016-12-30T02:32:50.893Z,-1.05
2016-12-30T02:34:50.535Z,-0.99
2016-12-30T02:36:05.466Z,-0.94
2016-12-30T02:36:50.564Z,-0.95
2016-12-30T02:38:05.492Z,-0.98
2016-12-30T02:38:50.593Z,-0.95
2016-12-30T02:39:50.602Z,-0.97
2016-12-30T02:40:50.622Z,-0.99
2016-12-30T02:42:05.548Z,-1.01
2016-12-30T02:43:50.658Z,-1.07
2016-12-30T02:44:50.669Z,-1.1
2016-12-30T02:45:50.684Z,-1.02
2016-12-30T02:46:50.699Z,-0.94
2016-12-30T02:47:50.711Z,-0.91
2016-12-30T02:48:50.727Z,-0.89
2016-12-30T02:50:50.752Z,-0.95
2016-12-30T02:51:50.766Z,-0.94
2016-12-30T02:52:50.781Z,-0.92
2016-12-30T02:53:50.795Z,-1.01
2016-12-30T02:54:50.809Z,-0.95
2016-12-30T02:55:50.820Z,-1.1
2016-12-30T02:56:50.835Z,-1.13
2016-12-30T02:58:05.766Z,-1.16
2016-12-30T02:58:50.866Z,-1.15
2016-12-30T02:59:50.876Z,-1.23
2016-12-30T03:00:50.893Z,-1.28
2016-12-30T03:01:50.912Z,-1.3
2016-12-30T03:02:50.916Z,-1.3
2016-12-30T03:03:50.930Z,-1.13
2016-12-30T03:04:50.947Z,-1.07
2016-12-30T03:05:50.960Z,-1.12
2016-12-30T03:06:50.972Z,-1.02
2016-12-30T03:07:50.988Z,-1.02
2016-12-30T03:08:50.999Z,-0.85
2016-12-30T03:09:51.016Z,-0.76
2016-12-30T03:10:51.025Z,-0.67
2016-12-30T03:11:51.042Z,-0.57
2016-12-30T03:12:51.056Z,-0.65
2016-12-30T03:14:05.985Z,-0.61
2016-12-30T03:14:51.085Z,-0.6
2016-12-30T03:15:51.095Z,-0.67
2016-12-30T03:16:51.109Z,-0.6
2016-12-30T03:17:51.125Z,-0.61
2016-12-30T03:18:51.134Z,-0.65
2016-12-30T03:19:51.155Z,-0.7
2016-12-30T03:20:51.163Z,-0.7
2016-12-30T03:21:51.180Z,-0.61
2016-12-30T03:22:51.190Z,-0.49
2016-12-30T03:23:51.211Z,-0.6
2016-12-30T03:24:51.218Z,-0.75
2016-12-30T03:25:51.231Z,-0.8
2016-12-30T03:26:51.249Z,-0.91
2016-12-30T03:27:51.259Z,-0.99
2016-12-30T03:28:51.276Z,-1.04
2016-12-30T03:30:06.208Z,-0.85
2016-12-30T03:30:51.300Z,-0.91
2016-12-30T03:32:51.328Z,-0.75
2016-12-30T03:36:51.391Z,-0.92
2016-12-30T03:37:51.398Z,-0.98
2016-12-30T03:38:51.411Z,-0.94
2016-12-30T03:39:51.424Z,-0.86
2016-12-30T03:40:51.443Z,-0.7
2016-12-30T03:41:51.453Z,-0.67
2016-12-30T03:42:51.467Z,-0.82
2016-12-30T03:43:51.480Z,-0.82
2016-12-30T03:45:06.411Z,-0.91
2016-12-30T03:45:51.514Z,-0.95
2016-12-30T03:46:51.523Z,-0.92
2016-12-30T03:47:51.536Z,-1.15
2016-12-30T03:50:51.573Z,-1.07
2016-12-30T03:51:51.593Z,-1.16
2016-12-30T03:52:51.602Z,-1.2
2016-12-30T03:53:51.617Z,-1.23
2016-12-30T03:55:06.547Z,-1.3
2016-12-30T03:55:51.642Z,-1.3
2016-12-30T03:56:51.661Z,-1.22
2016-12-30T03:57:51.672Z,-1.3
2016-12-30T03:58:51.686Z,-1.3
2016-12-30T03:59:51.700Z,-1.3
2016-12-30T04:00:51.713Z,-1.33
2016-12-30T04:01:51.725Z,-1.38
2016-12-30T04:02:51.740Z,-1.37
2016-12-30T04:03:51.751Z,-1.25
2016-12-30T04:04:51.779Z,-1.34
2016-12-30T04:05:51.784Z,-1.2
2016-12-30T04:06:51.792Z,-1.22
2016-12-30T04:07:51.807Z,-1.3
2016-12-30T04:08:51.820Z,-1.33
2016-12-30T04:09:51.835Z,-1.45
2016-12-30T04:10:51.849Z,-1.43
2016-12-30T04:11:51.866Z,-1.34
2016-12-30T04:13:06.791Z,-1.3
2016-12-30T04:13:51.891Z,-1.3
2016-12-30T04:14:51.905Z,-1.34
2016-12-30T04:15:51.913Z,-1.34
2016-12-30T04:17:06.845Z,-1.3
2016-12-30T04:17:51.943Z,-1.3
2016-12-30T04:18:51.955Z,-1.23
2016-12-30T04:19:51.971Z,-1.27
2016-12-30T04:20:51.982Z,-1.25
2016-12-30T04:21:51.999Z,-1.17
2016-12-30T04:22:52.009Z,-1.16
2016-12-30T04:23:52.053Z,-1.28
2016-12-30T04:25:06.956Z,-1.34
2016-12-30T04:25:52.051Z,-1.3
2016-12-30T04:26:52.163Z,-1.33
2016-12-30T04:28:06.994Z,-1.38
2016-12-30T04:28:52.092Z,-1.45
2016-12-30T04:29:52.106Z,-1.34
2016-12-30T04:30:52.116Z,-1.41
2016-12-30T04:31:52.131Z,-1.45
2016-12-30T04:33:07.061Z,-1.49
2016-12-30T04:33:52.159Z,-1.54
2016-12-30T04:34:52.170Z,-1.55
2016-12-30T04:35:52.183Z,-1.58
2016-12-30T04:36:52.197Z,-1.64
2016-12-30T04:37:52.219Z,-1.74
2016-12-30T04:39:52.236Z,-1.74
2016-12-30T04:41:52.268Z,-1.66
2016-12-30T04:42:52.279Z,-1.72
2016-12-30T04:43:52.295Z,-1.67
2016-12-30T04:45:07.222Z,-1.69
2016-12-30T04:45:52.321Z,-1.73
2016-12-30T04:46:52.331Z,-1.69
2016-12-30T04:47:52.347Z,-1.85
2016-12-30T04:49:07.276Z,-1.74
2016-12-30T04:49:52.375Z,-1.72
2016-12-30T04:50:52.388Z,-1.67
2016-12-30T04:51:52.400Z,-1.55
2016-12-30T04:53:52.426Z,-1.38
2016-12-30T04:54:52.440Z,-1.45
2016-12-30T04:55:52.454Z,-1.37
2016-12-30T04:56:52.466Z,-1.4
2016-12-30T04:57:52.482Z,-1.43
2016-12-30T04:58:52.492Z,-1.41
2016-12-30T04:59:52.655Z,-1.49
2016-12-30T05:00:52.518Z,-1.55
2016-12-30T05:01:52.533Z,-1.59
2016-12-30T05:02:52.549Z,-1.61
2016-12-30T05:03:52.560Z,-1.4
2016-12-30T05:05:07.490Z,-1.43
2016-12-30T05:05:52.612Z,-1.37
2016-12-30T05:06:52.599Z,-1.45
2016-12-30T05:07:52.611Z,-1.59
2016-12-30T05:08:52.626Z,-1.64
2016-12-30T05:09:52.638Z,-1.62
2016-12-30T05:10:52.651Z,-1.54
2016-12-30T05:11:52.667Z,-1.58
2016-12-30T05:13:52.699Z,-1.72
2016-12-30T05:15:07.624Z,-1.73
2016-12-30T05:16:07.636Z,-1.72
2016-12-30T05:17:07.649Z,-1.64
2016-12-30T05:17:52.751Z,-1.52
2016-12-30T05:18:52.757Z,-1.61
2016-12-30T05:20:07.690Z,-1.59
2016-12-30T05:20:52.790Z,-1.55
2016-12-30T05:21:52.801Z,-1.77
2016-12-30T05:22:52.814Z,-1.72
2016-12-30T05:23:52.850Z,-1.76
2016-12-30T05:25:52.849Z,-1.56
2016-12-30T05:26:52.868Z,-1.55
2016-12-30T05:27:52.880Z,-1.61
2016-12-30T05:28:52.891Z,-1.56
2016-12-30T05:29:52.907Z,-1.55
2016-12-30T05:30:52.917Z,-1.61
2016-12-30T05:31:52.933Z,-1.59
2016-12-30T05:32:52.946Z,-1.62
2016-12-30T05:33:52.959Z,-1.59
2016-12-30T05:34:52.970Z,-1.62
2016-12-30T05:35:52.987Z,-1.48
2016-12-30T05:37:53.060Z,-1.54
2016-12-30T05:38:53.029Z,-1.4
2016-12-30T05:39:53.037Z,-1.41
2016-12-30T05:40:53.051Z,-1.52
2016-12-30T05:41:53.064Z,-1.46
2016-12-30T05:42:53.079Z,-1.58
2016-12-30T05:43:53.091Z,-1.61
2016-12-30T05:44:53.103Z,-1.64
2016-12-30T05:45:53.120Z,-1.67
2016-12-30T05:47:08.048Z,-1.77
2016-12-30T05:47:53.149Z,-1.82
2016-12-30T05:48:53.158Z,-1.84
2016-12-30T05:49:53.171Z,-1.9
2016-12-30T05:50:53.184Z,-1.88
2016-12-30T05:52:08.142Z,-1.97
2016-12-30T05:52:53.207Z,-1.92
2016-12-30T05:53:53.223Z,-1.94
2016-12-30T05:54:53.235Z,-1.94
2016-12-30T05:55:53.251Z,-1.77
2016-12-30T05:56:53.262Z,-1.74
2016-12-30T05:57:53.279Z,-1.67
2016-12-30T05:59:53.303Z,-1.7
2016-12-30T06:00:53.315Z,-1.73
2016-12-30T06:01:53.328Z,-1.73
2016-12-30T06:02:53.341Z,-1.82
2016-12-30T06:03:53.355Z,-1.87
2016-12-30T06:04:53.369Z,-1.74
2016-12-30T06:05:53.381Z,-1.73
2016-12-30T06:06:53.398Z,-1.79
2016-12-30T06:08:08.326Z,-1.91
2016-12-30T06:08:53.421Z,-1.91
2016-12-30T06:09:53.435Z,-1.91
2016-12-30T06:11:53.461Z,-1.72
2016-12-30T06:12:53.478Z,-1.73
2016-12-30T06:13:53.485Z,-1.66
2016-12-30T06:14:53.499Z,-1.77
2016-12-30T06:16:08.433Z,-1.76
2016-12-30T06:16:53.525Z,-1.73
2016-12-30T06:17:53.541Z,-1.72
2016-12-30T06:19:08.470Z,-1.7
2016-12-30T06:19:53.566Z,-1.69
2016-12-30T06:20:53.581Z,-1.74
2016-12-30T06:21:53.597Z,-1.66
2016-12-30T06:22:53.613Z,-1.74
2016-12-30T06:24:08.534Z,-1.77
2016-12-30T06:24:53.633Z,-1.67
2016-12-30T06:25:53.647Z,-1.61
2016-12-30T06:26:53.658Z,-1.64
2016-12-30T06:27:53.668Z,-1.58
2016-12-30T06:28:53.708Z,-1.55
2016-12-30T06:29:53.700Z,-1.49
2016-12-30T06:30:53.711Z,-1.51
2016-12-30T06:31:53.721Z,-1.46
2016-12-30T06:32:53.736Z,-1.51
2016-12-30T06:33:53.753Z,-1.49
2016-12-30T06:35:08.679Z,-1.35
2016-12-30T06:35:53.778Z,-1.38
2016-12-30T06:36:53.789Z,-1.33
2016-12-30T06:37:53.806Z,-1.34
2016-12-30T06:38:53.817Z,-1.35
2016-12-30T06:40:53.843Z,-1.43
2016-12-30T06:41:53.856Z,-1.37
2016-12-30T06:42:53.869Z,-1.45
2016-12-30T06:43:53.880Z,-1.34
2016-12-30T06:44:53.895Z,-1.43
2016-12-30T06:45:53.908Z,-1.4
2016-12-30T06:46:53.921Z,-1.34
2016-12-30T06:47:53.935Z,-1.41
2016-12-30T06:48:53.949Z,-1.45
2016-12-30T06:49:53.960Z,-1.45
2016-12-30T06:50:53.975Z,-1.51
2016-12-30T06:51:53.988Z,-1.41
2016-12-30T06:52:53.998Z,-1.51
2016-12-30T06:53:54.014Z,-1.46
2016-12-30T06:55:08.943Z,-1.51
2016-12-30T06:55:54.043Z,-1.56
2016-12-30T06:57:54.063Z,-1.58
2016-12-30T06:58:54.081Z,-1.54
2016-12-30T06:59:54.094Z,-1.52
2016-12-30T07:00:54.104Z,-1.76
2016-12-30T07:01:54.124Z,-1.82
2016-12-30T07:02:54.130Z,-1.85
2016-12-30T07:03:54.146Z,-1.88
2016-12-30T07:04:54.158Z,-1.91
2016-12-30T07:06:09.089Z,-1.92
2016-12-30T07:06:54.184Z,-1.87
2016-12-30T07:08:09.113Z,-2
2016-12-30T07:08:54.211Z,-1.88
2016-12-30T07:09:54.229Z,-1.91
2016-12-30T07:10:54.234Z,-1.85
2016-12-30T07:11:54.251Z,-1.84
2016-12-30T07:12:54.286Z,-1.67
2016-12-30T07:13:54.276Z,-1.74
2016-12-30T07:15:54.303Z,-1.85
2016-12-30T07:16:54.318Z,-1.67
2016-12-30T07:17:54.329Z,-1.76
2016-12-30T07:18:54.343Z,-1.76
2016-12-30T07:19:54.354Z,-1.72
2016-12-30T07:20:54.368Z,-1.67
2016-12-30T07:22:09.298Z,-1.74
2016-12-30T07:22:54.396Z,-1.74
2016-12-30T07:23:54.407Z,-1.88
2016-12-30T07:24:54.420Z,-1.88
2016-12-30T07:25:54.437Z,-1.85
2016-12-30T07:27:09.362Z,-1.88
2016-12-30T07:27:54.460Z,-1.73
2016-12-30T07:28:54.475Z,-1.67
2016-12-30T07:29:54.486Z,-1.72
2016-12-30T07:30:54.498Z,-1.76
2016-12-30T07:31:54.511Z,-1.72
2016-12-30T07:34:54.555Z,-1.8
2016-12-30T07:35:54.563Z,-1.79
2016-12-30T07:36:54.576Z,-1.87
2016-12-30T07:37:54.589Z,-1.72
2016-12-30T07:39:09.520Z,-1.74
2016-12-30T07:39:54.617Z,-1.72
2016-12-30T07:40:54.635Z,-1.77
2016-12-30T07:41:54.643Z,-1.84
2016-12-30T07:43:09.574Z,-1.82
2016-12-30T07:43:54.669Z,-1.91
2016-12-30T07:45:54.696Z,-1.87
2016-12-30T07:46:54.709Z,-1.76
2016-12-30T07:47:54.720Z,-1.79
2016-12-30T07:48:54.735Z,-1.72
2016-12-30T07:50:54.769Z,-1.62
2016-12-30T07:51:54.776Z,-1.62
2016-12-30T07:52:54.787Z,-1.59
2016-12-30T07:53:54.799Z,-1.45
2016-12-30T07:54:54.817Z,-1.48
2016-12-30T07:55:54.826Z,-1.49
2016-12-30T07:56:54.842Z,-1.41
2016-12-30T07:57:54.852Z,-1.35
2016-12-30T07:59:09.783Z,-1.4
2016-12-30T07:59:54.884Z,-1.41
2016-12-30T08:00:54.893Z,-1.34
2016-12-30T08:02:54.920Z,-1.43
2016-12-30T08:03:54.937Z,-1.33
2016-12-30T08:06:54.974Z,-1.19
2016-12-30T08:07:54.993Z,-1.15
2016-12-30T08:09:09.918Z,-1.17
2016-12-30T08:09:55.014Z,-1.07
2016-12-30T08:11:09.944Z,-1.19
2016-12-30T08:11:55.046Z,-1.16
2016-12-30T08:12:55.053Z,-1.12
2016-12-30T08:13:55.068Z,-1.13
2016-12-30T08:15:09.997Z,-1.13
2016-12-30T08:15:55.094Z,-1.1
2016-12-30T08:16:55.109Z,-1.15
2016-12-30T08:17:55.124Z,-1.12
2016-12-30T08:18:55.135Z,-1.09
2016-12-30T08:19:55.151Z,-1.01
2016-12-30T08:20:55.161Z,-0.92
2016-12-30T08:21:55.174Z,-0.92
2016-12-30T08:22:55.189Z,-0.78
2016-12-30T08:23:55.211Z,-0.78
2016-12-30T08:24:55.215Z,-0.7
2016-12-30T08:26:10.147Z,-0.72
2016-12-30T08:27:10.160Z,-0.61
2016-12-30T08:27:55.259Z,-0.51
2016-12-30T08:28:55.271Z,-0.52
2016-12-30T08:30:10.202Z,-0.43
2016-12-30T08:30:55.300Z,-0.36
2016-12-30T08:31:55.311Z,-0.36
2016-12-30T08:32:55.327Z,-0.33
2016-12-30T08:33:55.347Z,-0.42
2016-12-30T08:34:55.358Z,-0.44
2016-12-30T08:37:55.402Z,-0.36
2016-12-30T08:38:55.413Z,-0.4
2016-12-30T08:39:55.426Z,-0.22
2016-12-30T08:40:55.438Z,-0.34
2016-12-30T08:41:55.452Z,-0.23
2016-12-30T08:43:10.380Z,-0.19
2016-12-30T08:43:55.479Z,-0.19
2016-12-30T08:44:55.491Z,-0.14
2016-12-30T08:45:55.506Z,-0.15
2016-12-30T08:46:55.520Z,-0.15
2016-12-30T08:47:55.533Z,-0.14
2016-12-30T08:48:55.550Z,-0.16
2016-12-30T08:49:55.559Z,-0.08
2016-12-30T08:50:55.576Z,-0.03
2016-12-30T08:51:55.590Z,-0.14
2016-12-30T08:52:55.604Z,-0.03
2016-12-30T08:54:55.630Z,0.02
2016-12-30T08:55:55.653Z,0.11
2016-12-30T08:57:10.577Z,0.11
2016-12-30T08:57:55.674Z,-0.04
2016-12-30T08:58:55.690Z,0.21
2016-12-30T08:59:55.702Z,0.21
2016-12-30T09:00:55.715Z,0.13
2016-12-30T09:02:10.648Z,0.17
2016-12-30T09:02:55.745Z,0.14
2016-12-30T09:03:55.759Z,0.15
2016-12-30T09:04:55.774Z,0.17
2016-12-30T09:05:55.789Z,0.28
2016-12-30T09:06:55.824Z,0.39
2016-12-30T09:07:55.815Z,0.39
2016-12-30T09:08:55.830Z,0.62
2016-12-30T09:09:55.844Z,0.72
2016-12-30T09:10:55.861Z,0.69
2016-12-30T09:11:55.874Z,0.9
2016-12-30T09:13:10.812Z,0.93
2016-12-30T09:13:55.901Z,0.94
2016-12-30T09:14:55.919Z,1
2016-12-30T09:15:55.929Z,0.98
2016-12-30T09:16:55.946Z,0.86
2016-12-30T09:18:10.877Z,0.97
2016-12-30T09:18:55.976Z,0.88
2016-12-30T09:19:55.987Z,0.88
2016-12-30T09:20:56.005Z,0.94
2016-12-30T09:21:56.016Z,0.97
2016-12-30T09:22:56.036Z,0.86
2016-12-30T09:23:56.050Z,0.91
2016-12-30T09:24:56.060Z,0.84
2016-12-30T09:25:56.076Z,0.84
2016-12-30T09:26:56.099Z,0.97
2016-12-30T09:28:11.023Z,1
2016-12-30T09:28:56.119Z,0.93
2016-12-30T09:29:56.435Z,1.02
2016-12-30T09:31:11.065Z,1.02
2016-12-30T09:31:56.166Z,1.14
2016-12-30T09:32:56.176Z,1.04
2016-12-30T09:34:11.112Z,1.11
2016-12-30T09:34:56.208Z,1.14
2016-12-30T09:35:56.223Z,1.04
2016-12-30T09:36:56.242Z,1.06
2016-12-30T09:37:56.254Z,1.2
2016-12-30T09:38:56.264Z,1.11
2016-12-30T09:39:56.285Z,1.06
2016-12-30T09:40:56.399Z,1.08
2016-12-30T09:42:56.324Z,1.11
2016-12-30T09:44:11.259Z,1.12
2016-12-30T09:44:56.355Z,1.06
2016-12-30T09:45:56.370Z,1.2
2016-12-30T09:46:56.393Z,1.22
2016-12-30T09:47:56.403Z,1.11
2016-12-30T09:48:56.415Z,1.08
2016-12-30T09:50:11.348Z,1.26
2016-12-30T09:50:56.444Z,1.15
2016-12-30T09:51:56.461Z,1.15
2016-12-30T09:52:56.473Z,1.26
2016-12-30T09:53:56.492Z,1.29
2016-12-30T09:54:56.507Z,1.26
2016-12-30T09:55:56.524Z,1.29
2016-12-30T09:56:56.533Z,1.3
2016-12-30T09:57:56.551Z,1.3
2016-12-30T09:58:56.568Z,1.26
2016-12-30T09:59:56.580Z,1.29
2016-12-30T10:01:11.512Z,1.32
2016-12-30T10:01:56.613Z,1.3
2016-12-30T10:02:56.628Z,1.34
2016-12-30T10:03:56.643Z,1.32
2016-12-30T10:05:11.574Z,1.34
2016-12-30T10:05:56.671Z,1.41
2016-12-30T10:06:56.685Z,1.37
2016-12-30T10:08:56.717Z,1.34
2016-12-30T10:09:56.733Z,1.3
2016-12-30T10:11:56.764Z,1.41
2016-12-30T10:12:56.780Z,1.4
2016-12-30T10:13:56.792Z,1.37
2016-12-30T10:14:56.809Z,1.42
2016-12-30T10:16:11.740Z,1.47
2016-12-30T10:16:56.838Z,1.58
2016-12-30T10:18:11.769Z,1.65
2016-12-30T10:18:56.868Z,1.6
2016-12-30T10:19:56.883Z,1.6
2016-12-30T10:20:56.900Z,1.59
2016-12-30T10:21:56.916Z,1.58
2016-12-30T10:22:56.929Z,1.59
2016-12-30T10:23:56.945Z,1.54
2016-12-30T10:24:56.961Z,1.59
2016-12-30T10:25:56.979Z,1.6
2016-12-30T10:26:56.988Z,1.6
2016-12-30T10:27:57.012Z,1.63
2016-12-30T10:29:57.039Z,1.62
2016-12-30T10:30:57.052Z,1.55
2016-12-30T10:31:57.068Z,1.72
2016-12-30T10:33:12.000Z,1.69
2016-12-30T10:33:57.100Z,1.69
2016-12-30T10:34:57.121Z,1.63
2016-12-30T10:35:57.130Z,1.72
2016-12-30T10:37:12.063Z,1.73
2016-12-30T10:37:57.161Z,1.66
2016-12-30T10:38:57.177Z,1.72
2016-12-30T10:39:57.194Z,1.8
2016-12-30T10:41:57.222Z,1.79
2016-12-30T10:42:57.235Z,1.81
2016-12-30T10:43:57.259Z,1.76
2016-12-30T10:44:57.266Z,1.77
2016-12-30T10:45:57.282Z,1.76
2016-12-30T10:46:57.303Z,1.69
2016-12-30T10:47:57.312Z,1.87
2016-12-30T10:49:12.246Z,1.91
2016-12-30T10:49:57.345Z,1.98
2016-12-30T10:50:57.363Z,1.95
2016-12-30T10:51:57.381Z,1.9
2016-12-30T10:53:12.311Z,1.84
2016-12-30T10:53:57.415Z,1.83
2016-12-30T10:54:57.425Z,1.81
2016-12-30T10:55:57.452Z,1.88
2016-12-30T10:56:57.452Z,2.06
2016-12-30T10:57:57.473Z,2
2016-12-30T10:58:57.484Z,2
2016-12-30T10:59:57.502Z,1.86
2016-12-30T11:00:57.515Z,1.99
2016-12-30T11:01:57.532Z,2.03
2016-12-30T11:02:57.544Z,2.07
2016-12-30T11:03:57.565Z,1.98
2016-12-30T11:05:12.495Z,2.06
2016-12-30T11:05:57.593Z,2.1
2016-12-30T11:06:57.610Z,2.09
2016-12-30T11:07:57.630Z,2.07
2016-12-30T11:09:12.558Z,2.2
2016-12-30T11:09:57.656Z,2.25
2016-12-30T11:10:57.671Z,2.25
2016-12-30T11:11:57.686Z,2.18
2016-12-30T11:12:57.706Z,2.18
2016-12-30T11:13:57.719Z,2.27
2016-12-30T11:15:57.749Z,2.35
2016-12-30T11:17:57.780Z,2.35
2016-12-30T11:18:57.794Z,2.28
2016-12-30T11:19:57.811Z,2.38
2016-12-30T11:20:57.826Z,2.41
2016-12-30T11:21:57.842Z,2.34
2016-12-30T11:22:57.857Z,2.46
2016-12-30T11:23:57.878Z,2.48
2016-12-30T11:25:12.806Z,2.35
2016-12-30T11:25:57.906Z,2.3
2016-12-30T11:27:57.936Z,2.34
2016-12-30T11:28:57.951Z,2.34
2016-12-30T11:29:57.966Z,2.42
2016-12-30T11:30:57.985Z,2.49
2016-12-30T11:31:57.999Z,2.35
2016-12-30T11:32:58.013Z,2.35
2016-12-30T11:33:58.418Z,2.46
2016-12-30T11:34:58.046Z,2.49
2016-12-30T11:35:58.061Z,2.53
2016-12-30T11:36:58.077Z,2.52
2016-12-30T11:37:58.132Z,2.52
2016-12-30T11:38:58.109Z,2.6
2016-12-30T11:40:13.041Z,2.53
2016-12-30T11:40:58.147Z,2.46
2016-12-30T11:41:58.159Z,2.49
2016-12-30T11:42:58.173Z,2.52
2016-12-30T11:43:58.189Z,2.74
2016-12-30T11:44:58.202Z,2.71
2016-12-30T11:45:58.216Z,2.75
2016-12-30T11:47:58.249Z,2.74
2016-12-30T11:48:58.300Z,2.69
2016-12-30T11:49:58.281Z,2.66
2016-12-30T11:51:13.215Z,2.71
2016-12-30T11:51:58.318Z,2.59
2016-12-30T11:52:58.329Z,2.59
2016-12-30T11:53:58.345Z,2.54
2016-12-30T11:54:58.362Z,2.57
2016-12-30T11:55:58.402Z,2.66
2016-12-30T11:56:58.394Z,2.6
2016-12-30T11:57:58.409Z,2.74
2016-12-30T11:58:58.452Z,2.74
2016-12-30T11:59:58.437Z,2.71
2016-12-30T12:00:58.461Z,2.64
2016-12-30T12:01:58.475Z,2.59
2016-12-30T12:02:58.488Z,2.71
2016-12-30T12:05:58.534Z,2.82
2016-12-30T12:06:58.552Z,2.79
2016-12-30T12:07:58.565Z,2.81
2016-12-30T12:08:58.583Z,2.77
2016-12-30T12:09:58.599Z,2.9
2016-12-30T12:10:58.613Z,2.96
2016-12-30T12:12:13.551Z,2.87
2016-12-30T12:12:58.645Z,2.93
2016-12-30T12:13:58.663Z,2.85
2016-12-30T12:14:58.680Z,2.81
2016-12-30T12:15:58.694Z,2.89
2016-12-30T12:17:58.729Z,2.81
2016-12-30T12:19:58.758Z,2.87
2016-12-30T12:20:58.782Z,2.99
2016-12-30T12:21:58.797Z,2.92
2016-12-30T12:23:13.724Z,2.96
2016-12-30T12:23:58.826Z,2.93
2016-12-30T12:24:58.841Z,2.96
2016-12-30T12:25:58.854Z,2.9
2016-12-30T12:26:58.873Z,2.9
2016-12-30T12:28:13.809Z,2.92
2016-12-30T12:28:58.906Z,2.9
2016-12-30T12:29:58.921Z,2.89
2016-12-30T12:30:58.941Z,2.9
2016-12-30T12:31:58.968Z,2.93
2016-12-30T12:32:58.965Z,2.81
2016-12-30T12:33:59.035Z,2.9
2016-12-30T12:34:58.999Z,2.9
2016-12-30T12:35:59.020Z,2.93
2016-12-30T12:36:59.032Z,2.93
2016-12-30T12:38:13.968Z,2.93
2016-12-30T12:38:59.064Z,2.92
2016-12-30T12:39:59.085Z,2.85
2016-12-30T12:40:59.098Z,2.93
2016-12-30T12:41:59.115Z,2.85
2016-12-30T12:42:59.131Z,2.82
2016-12-30T12:44:14.066Z,2.99
2016-12-30T12:44:59.161Z,2.99
2016-12-30T12:45:59.180Z,2.97
2016-12-30T12:46:59.194Z,2.97
2016-12-30T12:47:59.213Z,2.95
2016-12-30T12:48:59.228Z,2.96
2016-12-30T12:49:59.242Z,2.85
2016-12-30T12:50:59.261Z,2.95
2016-12-30T12:52:59.292Z,3.24
2016-12-30T12:53:59.309Z,3.06
2016-12-30T12:55:14.243Z,3.14
2016-12-30T12:55:59.343Z,3.11
2016-12-30T12:56:59.361Z,3.03
2016-12-30T12:57:59.373Z,3.15
2016-12-30T12:58:59.391Z,3.23
2016-12-30T13:00:14.323Z,3.1
2016-12-30T13:01:59.437Z,3.18
2016-12-30T13:02:59.455Z,3.2
2016-12-30T13:03:59.471Z,3.15
2016-12-30T13:04:59.488Z,3.1
2016-12-30T13:05:59.504Z,3.15
2016-12-30T13:06:59.518Z,3.1
2016-12-30T13:07:59.537Z,3.05
2016-12-30T13:08:59.556Z,3.08
2016-12-30T13:10:14.488Z,3.11
2016-12-30T13:11:14.503Z,3.13
2016-12-30T13:11:59.604Z,3.14
2016-12-30T13:12:59.618Z,3.23
2016-12-30T13:13:59.633Z,3.21
2016-12-30T13:15:14.570Z,3.11
2016-12-30T13:15:59.667Z,3.17
2016-12-30T13:16:59.682Z,3.14
2016-12-30T13:17:59.701Z,3.15
2016-12-30T13:18:59.719Z,3.17
2016-12-30T13:19:59.732Z,3.05
2016-12-30T13:20:59.753Z,3.08
2016-12-30T13:21:59.764Z,3.15
2016-12-30T13:22:59.782Z,3.14
2016-12-30T13:23:59.799Z,3.17
2016-12-30T13:24:59.812Z,3.08
2016-12-30T13:25:59.839Z,3
2016-12-30T13:26:59.848Z,3.21
2016-12-30T13:27:59.867Z,3.17
2016-12-30T13:28:59.879Z,3.1
2016-12-30T13:29:59.897Z,3.17
2016-12-30T13:31:00.309Z,3.29
2016-12-30T13:31:59.929Z,3.15
2016-12-30T13:32:59.945Z,3.21
2016-12-30T13:34:59.977Z,3.15
2016-12-30T13:35:59.992Z,3.18
2016-12-30T13:37:00.010Z,3.24
2016-12-30T13:38:00.026Z,3.24
2016-12-30T13:39:00.042Z,3.17
2016-12-30T13:40:00.059Z,3.15
2016-12-30T13:41:00.075Z,3.11
2016-12-30T13:42:15.008Z,3.18
2016-12-30T13:43:00.105Z,3.17
2016-12-30T13:44:00.122Z,3.18
2016-12-30T13:45:00.145Z,3.13
2016-12-30T13:46:00.158Z,3.1
2016-12-30T13:47:15.089Z,3.13
2016-12-30T13:48:00.196Z,3.2
2016-12-30T13:49:00.203Z,3.15
2016-12-30T13:50:00.222Z,3.1
2016-12-30T13:51:00.236Z,3.14
2016-12-30T13:52:00.252Z,3.08
2016-12-30T13:54:00.286Z,3.05
2016-12-30T13:55:00.302Z,2.97
2016-12-30T13:56:00.365Z,2.92
2016-12-30T13:57:00.334Z,2.78
2016-12-30T13:58:00.348Z,2.92
2016-12-30T13:59:00.365Z,2.85
2016-12-30T14:00:15.299Z,2.95
2016-12-30T14:01:00.400Z,2.9
2016-12-30T14:02:00.414Z,2.87